sensor_id;sensor_type;location;lat;lon;timestamp;pressure;altitude;pressure_sealevel;temperature;humidity
11049;BME280;5577;42.706;23.160;2022-07-06T00:00:33;94179.53;;;20.25;100.00
11049;BME280;5577;42.706;23.160;2022-07-06T00:03:17;94188.78;;;20.24;100.00
11049;BME280;5577;42.706;23.160;2022-07-06T00:06:01;94185.25;;;20.27;100.00
11049;BME280;5577;42.706;23.160;2022-07-06T00:08:45;94180.72;;;20.24;100.00
11049;BME280;5577;42.706;23.160;2022-07-06T00:11:29;94186.91;;;20.21;100.00
11049;BME280;5577;42.706;23.160;2022-07-06T00:14:13;94190.72;;;20.20;100.00
11049;BME280;5577;42.706;23.160;2022-07-06T00:16:57;94189.69;;;20.14;100.00
11049;BME280;5577;42.706;23.160;2022-07-06T00:19:41;94185.47;;;20.09;100.00
11049;BME280;5577;42.706;23.160;2022-07-06T00:22:25;94186.25;;;20.10;100.00
11049;BME280;5577;42.706;23.160;2022-07-06T00:25:08;94170.66;;;19.98;100.00
11049;BME280;5577;42.706;23.160;2022-07-06T00:27:52;94192.06;;;20.05;100.00
11049;BME280;5577;42.706;23.160;2022-07-06T00:30:36;94185.28;;;19.93;100.00
11049;BME280;5577;42.706;23.160;2022-07-06T00:33:21;94187.72;;;19.84;100.00
11049;BME280;5577;42.706;23.160;2022-07-06T00:36:05;94191.63;;;19.76;100.00
11049;BME280;5577;42.706;23.160;2022-07-06T00:38:49;94196.25;;;19.75;100.00
11049;BME280;5577;42.706;23.160;2022-07-06T00:41:33;94194.28;;;19.79;100.00
11049;BME280;5577;42.706;23.160;2022-07-06T00:44:17;94185.13;;;19.73;100.00
11049;BME280;5577;42.706;23.160;2022-07-06T00:47:01;94184.41;;;19.73;100.00
11049;BME280;5577;42.706;23.160;2022-07-06T00:49:46;94180.53;;;19.74;100.00
11049;BME280;5577;42.706;23.160;2022-07-06T00:52:53;94168.69;;;19.71;100.00
11049;BME280;5577;42.706;23.160;2022-07-06T00:55:39;94158.75;;;19.68;100.00
11049;BME280;5577;42.706;23.160;2022-07-06T00:58:24;94116.13;;;19.37;100.00
11049;BME280;5577;42.706;23.160;2022-07-06T01:01:08;94158.84;;;19.58;100.00
11049;BME280;5577;42.706;23.160;2022-07-06T01:03:52;94158.50;;;19.56;100.00
11049;BME280;5577;42.706;23.160;2022-07-06T01:06:36;94163.19;;;19.48;100.00
11049;BME280;5577;42.706;23.160;2022-07-06T01:09:20;94168.53;;;19.52;100.00
11049;BME280;5577;42.706;23.160;2022-07-06T01:12:04;94177.84;;;19.40;100.00
11049;BME280;5577;42.706;23.160;2022-07-06T01:14:49;94171.38;;;19.34;100.00
11049;BME280;5577;42.706;23.160;2022-07-06T01:17:33;94173.75;;;19.29;100.00
11049;BME280;5577;42.706;23.160;2022-07-06T01:20:22;94171.03;;;19.32;100.00
11049;BME280;5577;42.706;23.160;2022-07-06T01:23:06;94175.97;;;19.34;100.00
11049;BME280;5577;42.706;23.160;2022-07-06T01:25:50;94176.81;;;19.31;100.00
11049;BME280;5577;42.706;23.160;2022-07-06T01:28:34;94176.81;;;19.31;100.00
11049;BME280;5577;42.706;23.160;2022-07-06T01:31:23;94172.16;;;19.35;100.00
11049;BME280;5577;42.706;23.160;2022-07-06T01:34:09;94172.56;;;19.30;100.00
11049;BME280;5577;42.706;23.160;2022-07-06T01:36:54;94178.50;;;19.07;100.00
11049;BME280;5577;42.706;23.160;2022-07-06T01:39:38;94167.50;;;18.98;100.00
11049;BME280;5577;42.706;23.160;2022-07-06T01:42:22;94159.13;;;18.89;100.00
11049;BME280;5577;42.706;23.160;2022-07-06T01:45:06;94150.41;;;18.82;100.00
11049;BME280;5577;42.706;23.160;2022-07-06T01:47:50;94148.84;;;18.84;100.00
11049;BME280;5577;42.706;23.160;2022-07-06T01:50:34;94155.00;;;18.85;100.00
11049;BME280;5577;42.706;23.160;2022-07-06T01:53:18;94164.66;;;18.72;100.00
11049;BME280;5577;42.706;23.160;2022-07-06T01:56:02;94165.03;;;18.74;100.00
11049;BME280;5577;42.706;23.160;2022-07-06T01:58:47;94154.66;;;18.76;100.00
11049;BME280;5577;42.706;23.160;2022-07-06T02:01:31;94159.25;;;18.75;100.00
11049;BME280;5577;42.706;23.160;2022-07-06T02:04:15;94162.78;;;18.69;100.00
11049;BME280;5577;42.706;23.160;2022-07-06T02:06:59;94161.28;;;18.64;100.00
11049;BME280;5577;42.706;23.160;2022-07-06T02:09:43;94156.75;;;18.54;100.00
11049;BME280;5577;42.706;23.160;2022-07-06T02:12:27;94156.75;;;18.54;100.00
11049;BME280;5577;42.706;23.160;2022-07-06T02:15:11;94158.25;;;18.59;100.00
11049;BME280;5577;42.706;23.160;2022-07-06T02:17:54;94155.16;;;18.64;100.00
11049;BME280;5577;42.706;23.160;2022-07-06T02:20:39;94156.63;;;18.68;100.00
11049;BME280;5577;42.706;23.160;2022-07-06T02:23:22;94165.13;;;18.63;100.00
11049;BME280;5577;42.706;23.160;2022-07-06T02:26:06;94167.09;;;18.56;100.00
11049;BME280;5577;42.706;23.160;2022-07-06T02:28:50;94161.72;;;18.56;100.00
11049;BME280;5577;42.706;23.160;2022-07-06T02:31:34;94157.91;;;18.53;100.00
11049;BME280;5577;42.706;23.160;2022-07-06T02:34:18;94157.91;;;18.57;100.00
11049;BME280;5577;42.706;23.160;2022-07-06T02:37:02;94161.31;;;18.61;100.00
11049;BME280;5577;42.706;23.160;2022-07-06T02:39:46;94152.50;;;18.60;100.00
11049;BME280;5577;42.706;23.160;2022-07-06T02:42:31;94154.41;;;18.63;100.00
11049;BME280;5577;42.706;23.160;2022-07-06T02:45:15;94152.06;;;18.65;100.00
11049;BME280;5577;42.706;23.160;2022-07-06T02:47:59;94153.22;;;18.64;100.00
11049;BME280;5577;42.706;23.160;2022-07-06T02:50:43;94125.84;;;18.43;100.00
11049;BME280;5577;42.706;23.160;2022-07-06T02:53:27;94154.78;;;18.62;100.00
11049;BME280;5577;42.706;23.160;2022-07-06T02:56:11;94148.66;;;18.61;100.00
11049;BME280;5577;42.706;23.160;2022-07-06T02:58:55;94159.44;;;18.54;100.00
11049;BME280;5577;42.706;23.160;2022-07-06T03:01:39;94148.34;;;18.52;100.00
11049;BME280;5577;42.706;23.160;2022-07-06T03:04:23;94157.91;;;18.53;100.00
11049;BME280;5577;42.706;23.160;2022-07-06T03:07:07;94146.81;;;18.51;100.00
11049;BME280;5577;42.706;23.160;2022-07-06T03:09:51;94156.00;;;18.54;100.00
11049;BME280;5577;42.706;23.160;2022-07-06T03:12:35;94167.88;;;18.53;100.00
11049;BME280;5577;42.706;23.160;2022-07-06T03:15:19;94167.50;;;18.51;100.00
11049;BME280;5577;42.706;23.160;2022-07-06T03:18:03;94163.28;;;18.53;100.00
11049;BME280;5577;42.706;23.160;2022-07-06T03:20:47;94167.88;;;18.53;100.00
11049;BME280;5577;42.706;23.160;2022-07-06T03:23:31;94167.56;;;18.44;100.00
11049;BME280;5577;42.706;23.160;2022-07-06T03:26:15;94175.94;;;18.49;100.00
11049;BME280;5577;42.706;23.160;2022-07-06T03:28:59;94169.81;;;18.52;100.00
11049;BME280;5577;42.706;23.160;2022-07-06T03:31:43;94168.63;;;18.57;100.00
11049;BME280;5577;42.706;23.160;2022-07-06T03:34:27;94180.81;;;18.65;100.00
11049;BME280;5577;42.706;23.160;2022-07-06T03:37:11;94169.31;;;18.68;100.00
11049;BME280;5577;42.706;23.160;2022-07-06T03:39:55;94177.00;;;18.62;100.00
11049;BME280;5577;42.706;23.160;2022-07-06T03:42:39;94180.38;;;18.73;100.00
11049;BME280;5577;42.706;23.160;2022-07-06T03:45:22;94184.06;;;18.86;100.00
11049;BME280;5577;42.706;23.160;2022-07-06T03:48:06;94153.16;;;18.71;100.00
11049;BME280;5577;42.706;23.160;2022-07-06T03:50:50;94150.50;;;18.71;100.00
11049;BME280;5577;42.706;23.160;2022-07-06T03:53:35;94184.38;;;18.99;100.00
11049;BME280;5577;42.706;23.160;2022-07-06T03:56:19;94188.13;;;19.08;100.00
11049;BME280;5577;42.706;23.160;2022-07-06T03:59:12;94190.00;;;19.11;100.00
11049;BME280;5577;42.706;23.160;2022-07-06T04:01:57;94191.53;;;19.09;100.00
11049;BME280;5577;42.706;23.160;2022-07-06T04:04:41;94197.63;;;19.16;100.00
11049;BME280;5577;42.706;23.160;2022-07-06T04:07:25;94183.78;;;19.18;100.00
11049;BME280;5577;42.706;23.160;2022-07-06T04:10:09;94177.66;;;19.17;100.00
11049;BME280;5577;42.706;23.160;2022-07-06T04:12:54;94183.06;;;19.14;100.00
11049;BME280;5577;42.706;23.160;2022-07-06T04:15:38;94194.06;;;19.30;100.00
11049;BME280;5577;42.706;23.160;2022-07-06T04:18:23;94187.41;;;19.45;100.00
11049;BME280;5577;42.706;23.160;2022-07-06T04:21:07;94192.16;;;19.64;100.00
11049;BME280;5577;42.706;23.160;2022-07-06T04:23:51;94204.31;;;19.75;100.00
11049;BME280;5577;42.706;23.160;2022-07-06T04:26:35;94202.81;;;19.74;100.00
11049;BME280;5577;42.706;23.160;2022-07-06T04:29:19;94216.06;;;19.89;100.00
11049;BME280;5577;42.706;23.160;2022-07-06T04:32:03;94215.31;;;19.84;100.00
11049;BME280;5577;42.706;23.160;2022-07-06T04:34:47;94228.53;;;19.72;100.00
11049;BME280;5577;42.706;23.160;2022-07-06T04:37:31;94229.06;;;19.56;100.00
11049;BME280;5577;42.706;23.160;2022-07-06T04:40:16;94240.69;;;19.46;100.00
11049;BME280;5577;42.706;23.160;2022-07-06T04:43:00;94238.09;;;19.36;100.00
11049;BME280;5577;42.706;23.160;2022-07-06T04:45:43;94251.84;;;19.41;100.00
11049;BME280;5577;42.706;23.160;2022-07-06T04:48:27;94242.75;;;19.32;100.00
11049;BME280;5577;42.706;23.160;2022-07-06T04:51:11;94249.41;;;19.13;100.00
11049;BME280;5577;42.706;23.160;2022-07-06T04:53:56;94253.63;;;19.11;100.00
11049;BME280;5577;42.706;23.160;2022-07-06T04:56:40;94265.16;;;19.11;100.00
11049;BME280;5577;42.706;23.160;2022-07-06T04:59:24;94258.50;;;19.23;100.00
11049;BME280;5577;42.706;23.160;2022-07-06T05:02:08;94264.28;;;19.25;100.00
11049;BME280;5577;42.706;23.160;2022-07-06T05:04:52;94247.75;;;19.30;100.00
11049;BME280;5577;42.706;23.160;2022-07-06T05:07:36;94264.03;;;19.53;100.00
11049;BME280;5577;42.706;23.160;2022-07-06T05:10:23;94262.50;;;19.52;100.00
11049;BME280;5577;42.706;23.160;2022-07-06T05:13:07;94238.09;;;19.36;100.00
11049;BME280;5577;42.706;23.160;2022-07-06T05:15:51;94235.53;;;19.25;100.00
11049;BME280;5577;42.706;23.160;2022-07-06T05:18:34;94253.44;;;19.35;100.00
11049;BME280;5577;42.706;23.160;2022-07-06T05:21:18;94256.38;;;19.51;100.00
11049;BME280;5577;42.706;23.160;2022-07-06T05:24:02;94253.94;;;19.64;100.00
11049;BME280;5577;42.706;23.160;2022-07-06T05:26:46;94256.91;;;19.73;100.00
11049;BME280;5577;42.706;23.160;2022-07-06T05:29:31;94251.63;;;19.66;100.00
11049;BME280;5577;42.706;23.160;2022-07-06T05:32:14;94263.84;;;19.70;100.00
11049;BME280;5577;42.706;23.160;2022-07-06T05:34:58;94271.06;;;19.77;100.00
11049;BME280;5577;42.706;23.160;2022-07-06T05:37:43;94279.31;;;19.93;100.00
11049;BME280;5577;42.706;23.160;2022-07-06T05:40:27;94283.81;;;20.07;100.00
11049;BME280;5577;42.706;23.160;2022-07-06T05:43:11;94266.09;;;20.09;100.00
11049;BME280;5577;42.706;23.160;2022-07-06T05:45:55;94248.50;;;20.05;100.00
11049;BME280;5577;42.706;23.160;2022-07-06T05:48:39;94275.81;;;20.33;100.00
11049;BME280;5577;42.706;23.160;2022-07-06T05:51:41;94285.13;;;20.25;100.00
11049;BME280;5577;42.706;23.160;2022-07-06T05:54:25;94269.75;;;20.26;100.00
11049;BME280;5577;42.706;23.160;2022-07-06T05:57:09;94269.19;;;20.41;100.00
11049;BME280;5577;42.706;23.160;2022-07-06T05:59:53;94275.88;;;20.60;100.00
11049;BME280;5577;42.706;23.160;2022-07-06T06:02:41;94260.38;;;20.67;100.00
11049;BME280;5577;42.706;23.160;2022-07-06T06:05:26;94265.13;;;20.83;100.00
11049;BME280;5577;42.706;23.160;2022-07-06T06:08:10;94259.66;;;20.93;100.00
11049;BME280;5577;42.706;23.160;2022-07-06T06:10:54;94266.13;;;20.96;100.00
11049;BME280;5577;42.706;23.160;2022-07-06T06:13:38;94259.00;;;20.82;100.00
11049;BME280;5577;42.706;23.160;2022-07-06T06:16:23;94264.03;;;20.80;100.00
11049;BME280;5577;42.706;23.160;2022-07-06T06:19:07;94261.59;;;20.89;100.00
11049;BME280;5577;42.706;23.160;2022-07-06T06:21:51;94266.97;;;20.89;100.00
11049;BME280;5577;42.706;23.160;2022-07-06T06:24:36;94267.63;;;21.00;100.00
11049;BME280;5577;42.706;23.160;2022-07-06T06:27:20;94265.22;;;21.06;100.00
11049;BME280;5577;42.706;23.160;2022-07-06T06:30:04;94257.44;;;21.11;100.00
11049;BME280;5577;42.706;23.160;2022-07-06T06:32:49;94258.38;;;21.24;100.00
11049;BME280;5577;42.706;23.160;2022-07-06T06:35:33;94254.03;;;21.30;100.00
11049;BME280;5577;42.706;23.160;2022-07-06T06:38:18;94254.31;;;21.36;100.00
11049;BME280;5577;42.706;23.160;2022-07-06T06:41:03;94255.69;;;21.24;100.00
11049;BME280;5577;42.706;23.160;2022-07-06T06:43:47;94255.41;;;21.19;100.00
11049;BME280;5577;42.706;23.160;2022-07-06T06:46:31;94257.84;;;21.10;100.00
11049;BME280;5577;42.706;23.160;2022-07-06T06:49:15;94255.00;;;20.94;100.00
11049;BME280;5577;42.706;23.160;2022-07-06T06:51:59;94260.28;;;21.01;100.00
11049;BME280;5577;42.706;23.160;2022-07-06T06:54:43;94246.66;;;20.85;100.00
11049;BME280;5577;42.706;23.160;2022-07-06T06:57:27;94245.78;;;20.91;100.00
11049;BME280;5577;42.706;23.160;2022-07-06T07:00:13;94252.50;;;20.80;100.00
11049;BME280;5577;42.706;23.160;2022-07-06T07:02:57;94250.97;;;20.79;100.00
11049;BME280;5577;42.706;23.160;2022-07-06T07:05:41;94256.97;;;20.90;100.00
11049;BME280;5577;42.706;23.160;2022-07-06T07:08:25;94243.84;;;20.95;100.00
11049;BME280;5577;42.706;23.160;2022-07-06T07:11:09;94251.16;;;20.95;100.00
11049;BME280;5577;42.706;23.160;2022-07-06T07:13:53;94252.31;;;20.94;100.00
11049;BME280;5577;42.706;23.160;2022-07-06T07:16:37;94255.34;;;20.99;100.00
11049;BME280;5577;42.706;23.160;2022-07-06T07:19:21;94247.66;;;20.98;100.00
11049;BME280;5577;42.706;23.160;2022-07-06T07:22:05;94233.22;;;20.85;100.00
11049;BME280;5577;42.706;23.160;2022-07-06T07:24:49;94248.16;;;20.89;100.00
11049;BME280;5577;42.706;23.160;2022-07-06T07:27:34;94240.03;;;20.93;100.00
11049;BME280;5577;42.706;23.160;2022-07-06T07:30:17;94243.63;;;21.09;100.00
11049;BME280;5577;42.706;23.160;2022-07-06T07:33:01;94244.81;;;21.31;100.00
11049;BME280;5577;42.706;23.160;2022-07-06T07:35:45;94242.91;;;21.51;100.00
11049;BME280;5577;42.706;23.160;2022-07-06T07:38:29;94244.38;;;21.56;100.00
11049;BME280;5577;42.706;23.160;2022-07-06T07:41:13;94242.44;;;21.56;100.00
11049;BME280;5577;42.706;23.160;2022-07-06T07:43:57;94236.69;;;21.54;100.00
11049;BME280;5577;42.706;23.160;2022-07-06T07:46:41;94239.09;;;21.72;100.00
11049;BME280;5577;42.706;23.160;2022-07-06T07:49:25;94230.88;;;21.79;100.00
11049;BME280;5577;42.706;23.160;2022-07-06T07:52:09;94237.78;;;21.80;100.00
11049;BME280;5577;42.706;23.160;2022-07-06T07:54:53;94234.41;;;21.76;100.00
11049;BME280;5577;42.706;23.160;2022-07-06T07:57:37;94248.66;;;21.76;100.00
11049;BME280;5577;42.706;23.160;2022-07-06T08:00:21;94239.03;;;21.75;100.00
11049;BME280;5577;42.706;23.160;2022-07-06T08:03:05;94249.16;;;21.68;100.00
11049;BME280;5577;42.706;23.160;2022-07-06T08:05:49;94251.34;;;21.76;100.00
11049;BME280;5577;42.706;23.160;2022-07-06T08:08:34;94255.72;;;21.67;100.00
11049;BME280;5577;42.706;23.160;2022-07-06T08:11:18;94251.25;;;21.57;100.00
11049;BME280;5577;42.706;23.160;2022-07-06T08:14:03;94257.00;;;21.59;100.00
11049;BME280;5577;42.706;23.160;2022-07-06T08:16:47;94261.03;;;21.70;100.00
11049;BME280;5577;42.706;23.160;2022-07-06T08:19:31;94246.16;;;21.85;100.00
11049;BME280;5577;42.706;23.160;2022-07-06T08:22:14;94246.53;;;22.07;100.00
11049;BME280;5577;42.706;23.160;2022-07-06T08:24:59;94241.78;;;22.30;100.00
11049;BME280;5577;42.706;23.160;2022-07-06T08:27:43;94243.50;;;22.60;100.00
11049;BME280;5577;42.706;23.160;2022-07-06T08:30:27;94242.38;;;22.93;100.00
11049;BME280;5577;42.706;23.160;2022-07-06T08:33:11;94243.38;;;22.99;100.00
11049;BME280;5577;42.706;23.160;2022-07-06T08:35:55;94239.88;;;23.34;100.00
11049;BME280;5577;42.706;23.160;2022-07-06T08:38:39;94237.09;;;23.66;100.00
11049;BME280;5577;42.706;23.160;2022-07-06T08:41:25;94234.16;;;23.77;100.00
11049;BME280;5577;42.706;23.160;2022-07-06T08:44:11;94240.22;;;24.09;100.00
11049;BME280;5577;42.706;23.160;2022-07-06T08:46:57;94240.72;;;24.33;100.00
11049;BME280;5577;42.706;23.160;2022-07-06T08:49:42;94245.56;;;24.25;100.00
11049;BME280;5577;42.706;23.160;2022-07-06T08:52:27;94248.56;;;24.15;100.00
11049;BME280;5577;42.706;23.160;2022-07-06T08:55:12;94245.19;;;23.82;100.00
11049;BME280;5577;42.706;23.160;2022-07-06T08:57:57;94093.66;;;22.72;100.00
11049;BME280;5577;42.706;23.160;2022-07-06T09:00:42;94216.44;;;23.60;100.00
11049;BME280;5577;42.706;23.160;2022-07-06T09:03:27;94253.16;;;24.30;100.00
11049;BME280;5577;42.706;23.160;2022-07-06T09:06:14;94243.56;;;24.54;100.00
11049;BME280;5577;42.706;23.160;2022-07-06T09:09:05;94243.03;;;24.59;100.00
11049;BME280;5577;42.706;23.160;2022-07-06T09:11:50;94240.22;;;24.50;100.00
11049;BME280;5577;42.706;23.160;2022-07-06T09:14:34;94236.19;;;24.42;100.00
11049;BME280;5577;42.706;23.160;2022-07-06T09:17:18;94240.88;;;24.13;100.00
11049;BME280;5577;42.706;23.160;2022-07-06T09:20:02;94234.63;;;23.88;100.00
11049;BME280;5577;42.706;23.160;2022-07-06T09:22:46;94243.16;;;23.86;100.00
11049;BME280;5577;42.706;23.160;2022-07-06T09:25:30;94247.34;;;24.44;100.00
11049;BME280;5577;42.706;23.160;2022-07-06T09:28:15;94250.00;;;24.73;100.00
11049;BME280;5577;42.706;23.160;2022-07-06T09:31:06;94232.03;;;24.79;100.00
11049;BME280;5577;42.706;23.160;2022-07-06T09:33:59;94243.50;;;25.08;100.00
11049;BME280;5577;42.706;23.160;2022-07-06T09:36:47;94249.75;;;24.55;100.00
11049;BME280;5577;42.706;23.160;2022-07-06T09:39:31;94228.22;;;24.76;100.00
11049;BME280;5577;42.706;23.160;2022-07-06T09:42:15;94234.28;;;25.31;100.00
11049;BME280;5577;42.706;23.160;2022-07-06T09:44:59;94227.38;;;25.64;100.00
11049;BME280;5577;42.706;23.160;2022-07-06T09:47:47;94229.91;;;25.46;100.00
11049;BME280;5577;42.706;23.160;2022-07-06T09:50:39;94232.59;;;25.58;100.00
11049;BME280;5577;42.706;23.160;2022-07-06T09:53:25;94229.91;;;25.46;100.00
11049;BME280;5577;42.706;23.160;2022-07-06T09:56:09;94221.97;;;25.85;100.00
11049;BME280;5577;42.706;23.160;2022-07-06T09:58:53;94220.53;;;25.93;100.00
11049;BME280;5577;42.706;23.160;2022-07-06T10:01:38;94236.63;;;25.88;100.00
11049;BME280;5577;42.706;23.160;2022-07-06T10:04:24;94222.56;;;25.68;100.00
11049;BME280;5577;42.706;23.160;2022-07-06T10:07:08;94228.09;;;25.77;100.00
11049;BME280;5577;42.706;23.160;2022-07-06T10:09:53;94224.81;;;25.82;100.00
11049;BME280;5577;42.706;23.160;2022-07-06T10:12:37;94222.41;;;25.84;100.00
11049;BME280;5577;42.706;23.160;2022-07-06T10:15:25;94220.81;;;25.74;100.00
11049;BME280;5577;42.706;23.160;2022-07-06T10:18:09;94210.31;;;25.76;100.00
11049;BME280;5577;42.706;23.160;2022-07-06T10:20:53;94217.97;;;26.11;100.00
11049;BME280;5577;42.706;23.160;2022-07-06T10:23:38;94201.63;;;26.24;100.00
11049;BME280;5577;42.706;23.160;2022-07-06T10:26:23;94205.19;;;26.42;100.00
11049;BME280;5577;42.706;23.160;2022-07-06T10:29:08;94203.34;;;26.30;100.00
11049;BME280;5577;42.706;23.160;2022-07-06T10:31:52;94205.09;;;26.76;100.00
11049;BME280;5577;42.706;23.160;2022-07-06T10:34:38;94200.56;;;27.22;100.00
11049;BME280;5577;42.706;23.160;2022-07-06T10:37:27;94202.44;;;27.61;96.17
11049;BME280;5577;42.706;23.160;2022-07-06T10:40:14;94215.00;;;27.49;90.41
11049;BME280;5577;42.706;23.160;2022-07-06T10:43:17;94213.31;;;27.61;83.94
11049;BME280;5577;42.706;23.160;2022-07-06T10:46:14;94211.34;;;27.43;83.68
11049;BME280;5577;42.706;23.160;2022-07-06T10:49:14;94202.91;;;27.59;87.65
11049;BME280;5577;42.706;23.160;2022-07-06T10:51:58;94200.66;;;27.58;88.54
11049;BME280;5577;42.706;23.160;2022-07-06T10:54:43;94200.50;;;27.62;87.03
11049;BME280;5577;42.706;23.160;2022-07-06T10:57:27;94115.06;;;26.96;85.58
11049;BME280;5577;42.706;23.160;2022-07-06T11:00:11;94208.06;;;27.76;82.05
11049;BME280;5577;42.706;23.160;2022-07-06T11:02:56;94210.34;;;28.13;88.47
11049;BME280;5577;42.706;23.160;2022-07-06T11:05:40;94207.00;;;28.18;77.72
11049;BME280;5577;42.706;23.160;2022-07-06T11:08:48;94205.47;;;27.81;78.08
11049;BME280;5577;42.706;23.160;2022-07-06T11:14:18;94214.41;;;27.91;75.12
11049;BME280;5577;42.706;23.160;2022-07-06T11:17:02;94201.09;;;27.75;75.60
11049;BME280;5577;42.706;23.160;2022-07-06T11:19:55;94197.00;;;28.24;74.68
11049;BME280;5577;42.706;23.160;2022-07-06T11:22:39;94195.19;;;28.30;72.21
11049;BME280;5577;42.706;23.160;2022-07-06T11:25:24;94194.28;;;28.33;74.44
11049;BME280;5577;42.706;23.160;2022-07-06T11:28:08;94196.84;;;28.19;71.80
11049;BME280;5577;42.706;23.160;2022-07-06T11:30:52;94183.56;;;28.21;73.39
11049;BME280;5577;42.706;23.160;2022-07-06T11:33:36;94167.66;;;28.28;69.40
11049;BME280;5577;42.706;23.160;2022-07-06T11:36:21;94191.00;;;28.71;67.90
11049;BME280;5577;42.706;23.160;2022-07-06T11:39:06;94185.59;;;28.62;67.86
11049;BME280;5577;42.706;23.160;2022-07-06T11:41:50;94182.50;;;28.78;69.64
11049;BME280;5577;42.706;23.160;2022-07-06T11:44:35;94172.28;;;28.96;72.34
11049;BME280;5577;42.706;23.160;2022-07-06T11:47:19;94177.75;;;28.87;70.57
11049;BME280;5577;42.706;23.160;2022-07-06T11:50:06;94175.56;;;28.77;68.56
11049;BME280;5577;42.706;23.160;2022-07-06T11:52:50;94174.44;;;28.33;69.59
11049;BME280;5577;42.706;23.160;2022-07-06T11:55:34;94158.63;;;27.32;74.70
11049;BME280;5577;42.706;23.160;2022-07-06T11:58:22;94164.31;;;26.67;79.12
11049;BME280;5577;42.706;23.160;2022-07-06T12:01:08;94154.66;;;26.36;81.61
11049;BME280;5577;42.706;23.160;2022-07-06T12:03:57;94153.75;;;26.39;90.85
11049;BME280;5577;42.706;23.160;2022-07-06T12:06:43;94148.31;;;26.08;97.36
11049;BME280;5577;42.706;23.160;2022-07-06T12:09:35;94148.81;;;26.46;89.95
11049;BME280;5577;42.706;23.160;2022-07-06T12:12:19;94160.50;;;27.13;90.29
11049;BME280;5577;42.706;23.160;2022-07-06T12:15:03;94159.09;;;27.39;83.55
11049;BME280;5577;42.706;23.160;2022-07-06T12:17:48;94152.44;;;27.58;81.77
11049;BME280;5577;42.706;23.160;2022-07-06T12:20:32;94157.72;;;28.07;74.75
11049;BME280;5577;42.706;23.160;2022-07-06T12:23:16;94157.81;;;28.81;71.65
11049;BME280;5577;42.706;23.160;2022-07-06T12:26:00;94165.38;;;29.66;68.92
11049;BME280;5577;42.706;23.160;2022-07-06T12:28:44;94162.81;;;30.15;63.62
11049;BME280;5577;42.706;23.160;2022-07-06T12:34:18;94161.00;;;28.20;71.63
11049;BME280;5577;42.706;23.160;2022-07-06T12:37:08;94143.34;;;27.34;73.36
11049;BME280;5577;42.706;23.160;2022-07-06T12:39:52;94149.81;;;26.61;79.72
11049;BME280;5577;42.706;23.160;2022-07-06T12:42:45;94115.91;;;26.05;85.23
11049;BME280;5577;42.706;23.160;2022-07-06T12:45:30;94114.94;;;26.29;79.42
11049;BME280;5577;42.706;23.160;2022-07-06T12:48:14;94140.84;;;26.91;80.01
11049;BME280;5577;42.706;23.160;2022-07-06T12:50:58;94139.00;;;27.55;73.53
11049;BME280;5577;42.706;23.160;2022-07-06T12:53:42;94137.47;;;27.81;69.34
11049;BME280;5577;42.706;23.160;2022-07-06T12:56:26;94141.28;;;27.93;72.27
11049;BME280;5577;42.706;23.160;2022-07-06T12:59:21;94102.53;;;27.98;73.25
11049;BME280;5577;42.706;23.160;2022-07-06T13:02:07;94134.50;;;28.48;69.82
11049;BME280;5577;42.706;23.160;2022-07-06T13:04:59;94131.59;;;28.51;66.35
11049;BME280;5577;42.706;23.160;2022-07-06T13:07:47;94093.22;;;28.31;65.77
11049;BME280;5577;42.706;23.160;2022-07-06T13:10:33;94132.28;;;28.19;63.91
11049;BME280;5577;42.706;23.160;2022-07-06T13:13:19;94126.88;;;28.01;66.79
11049;BME280;5577;42.706;23.160;2022-07-06T13:16:03;94124.94;;;27.84;68.86
11049;BME280;5577;42.706;23.160;2022-07-06T13:18:47;94125.53;;;27.79;69.08
11049;BME280;5577;42.706;23.160;2022-07-06T13:21:32;94118.69;;;28.10;67.09
11049;BME280;5577;42.706;23.160;2022-07-06T13:24:16;94113.38;;;28.25;66.93
11049;BME280;5577;42.706;23.160;2022-07-06T13:27:00;94128.59;;;28.40;61.80
11049;BME280;5577;42.706;23.160;2022-07-06T13:29:44;94121.84;;;28.27;63.00
11049;BME280;5577;42.706;23.160;2022-07-06T13:32:29;94118.63;;;28.28;65.78
11049;BME280;5577;42.706;23.160;2022-07-06T13:35:12;94119.00;;;28.21;61.92
11049;BME280;5577;42.706;23.160;2022-07-06T13:37:56;94120.03;;;28.15;57.78
11049;BME280;5577;42.706;23.160;2022-07-06T13:40:40;94119.63;;;27.98;60.13
11049;BME280;5577;42.706;23.160;2022-07-06T13:43:25;94112.69;;;27.97;63.48
11049;BME280;5577;42.706;23.160;2022-07-06T13:46:09;94112.06;;;28.11;60.45
11049;BME280;5577;42.706;23.160;2022-07-06T13:48:54;94113.41;;;28.07;60.70
11049;BME280;5577;42.706;23.160;2022-07-06T13:51:40;94114.97;;;27.63;60.61
11049;BME280;5577;42.706;23.160;2022-07-06T13:54:24;94114.06;;;27.57;59.48
11049;BME280;5577;42.706;23.160;2022-07-06T13:57:08;94111.19;;;27.69;61.33
11049;BME280;5577;42.706;23.160;2022-07-06T13:59:52;94110.75;;;27.71;61.71
11049;BME280;5577;42.706;23.160;2022-07-06T14:02:36;94107.84;;;27.74;60.10
11049;BME280;5577;42.706;23.160;2022-07-06T14:05:20;94108.75;;;27.80;60.04
11049;BME280;5577;42.706;23.160;2022-07-06T14:08:04;94111.50;;;27.62;61.32
11049;BME280;5577;42.706;23.160;2022-07-06T14:10:48;94077.81;;;27.32;59.33
11049;BME280;5577;42.706;23.160;2022-07-06T14:13:33;94107.56;;;27.63;58.75
11049;BME280;5577;42.706;23.160;2022-07-06T14:16:17;94102.72;;;27.40;59.71
11049;BME280;5577;42.706;23.160;2022-07-06T14:19:01;94106.81;;;27.26;61.49
11049;BME280;5577;42.706;23.160;2022-07-06T14:21:45;94109.59;;;26.78;63.61
11049;BME280;5577;42.706;23.160;2022-07-06T14:24:29;94112.91;;;26.82;65.07
11049;BME280;5577;42.706;23.160;2022-07-06T14:27:13;94114.63;;;27.15;66.22
11049;BME280;5577;42.706;23.160;2022-07-06T14:29:57;94105.16;;;27.38;62.60